Siirt Airport Siirt TR
ICAO: LTCL
IATA: SXZ
Category: Medium
Scheduled Services: No

Elevation: 2001 ft
TransAlt. 12000 ft.

Airport Communications:
TWR:132.05

LTCL Zoom In..

If you have problems with the map follow the link
https://www.worldairports.se/pages/airport.php?
ICAO=LTCL

Runways:

(A) RW 06 length 6562 ft width 98 ft
---- / hdg 63

(B) RW 24 length 6562 ft width 98 ft
---- / hdg 243

Location; LTCL
Day. 04 / Time. 12.50 Zulu
* QNH: 1019
* Temperature: 08° c. 46.4°f.
* Wind from: 000° Speed 00 kn.
Dewpoint: 08° c.
Visibility: 9000 m.
Clouds: Scattered 3500 ft.
Clouds: Overcast 9000 ft.
Conditions: Light Rain.

LTCL 041250Z 00000KT 9000 -RA SCT035 OVC090 08/08 Q1019


Wind - Calm.

 
 
jpsmedia.com for Web Design worldairports.se 2018   terms of use